Impacts TAF Board INFO
FOR SITUATIONAL AWARENESS. NOT TO BE USED FOR FLIGHT PLANNING PURPOSES.
IDs:

KTPA - Tampa Intl Arpt, FL, US

Issued at 2320 UTC 12 Dec 2017
Updated at 0125 UTC 13 Dec 2017
Potential Impact None Slight Moderate High
Time<<14/02Z 14/03Z 14/04Z 14/05Z 14/06Z 14/07Z 14/08Z 14/09Z 14/10Z 14/11Z 14/12Z 14/13Z 14/14Z
Type PRVL PRVL PRVL PRVL
VIS >6 >6 >6 >6
CIG -- -- -- --
Cover SKC SKC SKC SKC
FltCat VFR VFR VFR VFR
WX -- -- -- --
WDir 280 280 280 280
WSpd 7 7 7 7
WGst -- -- -- --

Raw TAF
KTPA 122320Z 1300/1406 30010KT P6SM FEW050
  FM130600 35008KT P6SM SKC
  FM131400 02006KT P6SM SKC
  FM131700 28007KT P6SM SKC


METAR Board
Radar Display
Forecast Discussion

FOR SITUATIONAL AWARENESS. NOT TO BE USED FOR FLIGHT PLANNING PURPOSES.